Fahad Al-Ahmadi

Recruteur en chef - Hajer
13 Févr 2028
Dimanche
Processus

Personnalité

Adaptabilité (9) Ambition (8) Controverse (9) Loyauté (8) Pression (19) Professionnalisme (11) Sportivité (14) Tempérament (3)

Profil

Style d'entraînement Démocratique
Diplôme National B
Détermination 9
Gestion des joueurs 4
Motivation 3
Discipline 3
Satisfaction professionnelle
100%
Fatigue
0%
Rôle Recruteur en chef
Salaire 11.1K p/s
Contrat 14.03.2030

Performance

Comportement Bon
Efficacité de l'entraînement
33%
Développement des joueurs
15%
Prévention des blessures
40%
Mise en place tactique
20%

Événements récents

A participé à une réunion de recrutement 14j
En formation continue 21j
A participé à une réunion de recrutement 21j
En formation continue 21j
En formation continue 21j
En formation continue 21j
En formation continue 28j
En formation continue 28j

Suivi en cours

132
Joueur Club Statut Capacité Confiance Observé Dernière observation Dernier vote
Santiago Apa All Boys Actif 108 / 123 40% 4 29.12.2027 -
Zakaria Aboukhlal Torino Actif 146 / 127 40% 1 29.12.2027 -
Edgar Sevikyan Ferencvaros Actif 125 / 125 40% 2 27.12.2027 -
Yegor Golenkov Rostov Actif 141 / 108 40% 1 27.12.2027 -
Morad Khodari Najran Actif 114 / 110 40% 1 25.12.2027 -
Alejandro Melo FC Lahti Actif 119 / 104 40% 4 24.12.2027 -
Andrea Adorante Venezia Actif 116 / 134 40% 1 24.12.2027 -
Gustavo Viera Cerro Largo Actif 114 / 108 40% 1 22.12.2027 -
Facundo Kruspzky Al Wahda Actif 133 / 130 40% 3 21.12.2027 -
Paolo Yrizar Chernomorets Actif 95 / 105 40% 2 20.12.2027 -
Alex Valera Universitario Actif 122 / 135 40% 2 18.12.2027 -
Camilo Machado Madryn Actif 90 / 115 40% 3 16.12.2027 -
Dylan Cabral Arsenal Actif 101 / 96 40% 2 15.12.2027 -
Prince Ibara Al-Njoom Actif 114 / 114 40% 1 13.12.2027 -
Tenton Yenne Baltika Actif 103 / 111 40% 1 09.12.2027 -
Yegor Kortsov Dinamo Brest Actif 107 / 101 40% 3 07.12.2027 -
Sunday Megwo Abia Warriors Actif 83 / 112 40% 7 06.12.2027 -
Jhoao Rodríguez Deportes Quindio Actif 113 / 110 40% 11 02.12.2027 -
Matías Samaniego Talleres Actif 107 / 86 40% 1 01.12.2027 -
Brayan Gil Baltika Actif 107 / 125 40% 4 29.11.2027 -
Denis M. Kovalevich Dinamo Brest Actif 101 / 98 40% 5 25.11.2027 -
Timur Suleimanov Nizhniy Novgorod Actif 101 / 132 40% 1 19.11.2027 -
Miro Arsenal Tula Actif 129 / 123 40% 1 19.11.2027 -
John Valladares Santiago Wanderers Actif 105 / 107 40% 1 10.11.2027 -
Vladislav Yatskevich BATE Actif 90 / 105 40% 3 08.11.2027 -
Daniel Barrea Godoy Cruz Actif 122 / 128 40% 3 08.11.2027 -
Sebastián Parada San Luis Actif 83 / 100 40% 2 04.11.2027 -
Santiago Guzmán Wanderers Actif 110 / 103 40% 6 04.11.2027 -
Omar Sowe IBV Actif 123 / 103 40% 1 02.11.2027 -
François Kamano Sochi Actif 120 / 128 40% 1 02.11.2027 -
Matheus Alves Baltika Actif 149 / 130 40% 1 31.10.2027 -
Steven Alfred Torpedo-BelAZ Actif 83 / 93 40% 3 28.10.2027 -
Yakou Meïté Damac Actif 114 / 112 40% 2 24.10.2027 -
Agustín Dávila Cerro Largo Actif 80 / 98 40% 2 20.10.2027 -
Andrey Solovey Slavia Mozyr Actif 91 / 94 40% 3 16.10.2027 -
Kirill Tsepenkov Dnepr Mogilev Actif 83 / 87 40% 1 16.10.2027 -
Cristian Rivas Bogota Actif 121 / 99 40% 3 06.10.2027 -
Timofey Simanenka Gomel Actif 89 / 112 40% 1 02.10.2027 -
Juan David Rueda Alianza Petrolera Actif 106 / 106 40% 2 30.09.2027 -
Guljigit Borubaev Neman Actif 86 / 94 40% 1 20.09.2027 -
Karen Vardanyan Dinamo Minsk Actif 110 / 91 40% 2 14.09.2027 -
Evgeniy Shevchenko Slavia Mozyr Actif 81 / 85 40% 1 08.09.2027 -
Tiago Pucciarelli IF Elfsborg Actif 79 / 106 40% 1 04.09.2027 -
Luighi Palmeiras Actif 95 / 122 40% 1 28.08.2027 -
Víctor Barrionuevo Emirates Club Actif 107 / 93 40% 2 27.08.2027 -
Owen Falconis Cerrito Actif 90 / 86 40% 2 25.08.2027 -
Miguel Merentiel Köln Actif 119 / 129 40% 1 22.08.2027 -
Luca Franco Arsenal Actif 91 / 120 40% 2 14.08.2027 -
Lucas Delgado San Miguel Actif 88 / 94 40% 1 12.08.2027 -
Alen Ožbolt Apollon Actif 100 / 112 40% 1 11.08.2027 -
Karim El Berkaoui Al-Khaleej Actif 138 / 116 40% 4 09.08.2027 -
Törles Knöll Al-Ta'ee Actif 116 / 113 40% 1 03.08.2027 -
Kane Drummond Oldham Athletic Actif 91 / 101 40% 2 28.07.2027 -
Younes El Bahraoui Al-Taawoun Actif 104 / 119 40% 2 27.07.2027 -
Elías Ayala Madryn Actif 123 / 106 40% 1 25.07.2027 -
Daniil Sukhoruchko Metalist Actif 116 / 112 40% 2 23.07.2027 -
Job Ochieng Real Sociedad Actif 96 / 119 40% 1 22.07.2027 -
Martin Sekulić Ural Actif 132 / 123 40% 4 12.07.2027 -
Peter Olayinka Al-Wehda Actif 138 / 114 40% 3 09.07.2027 -
David Karaev KAMAZ Actif 102 / 90 40% 2 08.07.2027 -
Georgy Melkadze Akhmat Grozny Actif 109 / 102 40% 1 04.07.2027 -
Víctor Guzmán Sporting CP Actif 99 / 109 40% 2 02.07.2027 -
Jonathan Okoronkwo Torpedo Moscow Actif 112 / 119 40% 1 01.07.2027 -
Vladislav Sarveli Nizhniy Novgorod Actif 125 / 97 40% 1 29.06.2027 -
Wilfried Kanga Al-Fateh Actif 117 / 128 40% 1 23.06.2027 -
Moussa Koné Al-Ra'ed Actif 124 / 112 40% 2 20.06.2027 -
Alexandr Saplinov Volga Actif 83 / 93 40% 1 20.06.2027 -
Matteo Cortesi Arezzo Actif 121 / 108 40% 1 15.06.2027 -
Said Aliev Rotor Actif 94 / 86 40% 1 14.06.2027 -
Jota Silva Olympiacos Actif 141 / 139 40% 1 14.06.2027 -
Ruslan Apekov Torpedo Moscow Actif 94 / 95 40% 1 11.06.2027 -
Leonardo Candellone Juve Stabia Actif 131 / 125 40% 2 10.06.2027 -
Vyacheslav Grulev Nizhniy Novgorod Actif 110 / 99 40% 1 09.06.2027 -
Slobodan Tedić Akron Actif 107 / 116 40% 1 07.06.2027 -
Jassim Al-Ashban Al-Orobah Actif 100 / 94 40% 1 11.01.2027 -
Loreintz Rosier Al-Hazem Actif 128 / 115 40% 1 06.01.2027 -
Kennedy Boateng Al-Fateh Actif 118 / 131 40% 1 04.01.2027 -
Musab Al-Juwayr Al-Qadisiyah Actif 135 / 127 40% 1 01.01.2027 -
Anderson Arroyo Rubin Actif 129 / 120 40% 1 01.01.2027 -
Adrian Šemper Al-Fateh Actif 129 / 120 40% 1 31.12.2026 -
Massiré Gassama Binga Actif 83 / 87 40% 1 28.12.2026 -
Bogdan Ovsyannikov Orenburg Actif 112 / 121 40% 1 28.12.2026 -
David Sangaré Ryazan Actif 89 / 102 40% 2 27.12.2026 -
Evgeny Staver Rubin Actif 110 / 97 40% 5 26.12.2026 -
Alkalifa Coulibaly Onze Createurs Actif 90 / 106 40% 2 26.12.2026 -
Ilja Tuseev Chelyabinsk Actif 80 / 83 40% 2 25.12.2026 -
Ahmed Al-Nakhli Al-Hazem Actif 120 / 99 40% 1 25.12.2026 -
Joaquín Bigo Tristán Suárez Actif 116 / 93 40% 1 25.12.2026 -
Josh Brownhill Al-Shabab Actif 133 / 129 40% 1 24.12.2026 -
Manu Morlanes Mallorca Actif 137 / 131 40% 3 21.12.2026 -
Aschraf El Mahdioui Al-Taawoun Actif 126 / 119 40% 1 21.12.2026 -
Rustam Yatimov Rostov Actif 134 / 129 40% 4 19.12.2026 -
Denis Makarov Krylya Sovetov Actif 131 / 123 40% 1 18.12.2026 -
Hugo Moura Al-Fayha Actif 113 / 126 40% 1 14.12.2026 -
Thomas Carrique Andorra Actif 137 / 103 40% 1 14.12.2026 -
Saleh Abu Al-Shamat Al-Ahli Actif 126 / 128 40% 1 11.12.2026 -
Oleh Bilyk Epicentr Actif 89 / 114 40% 3 09.12.2026 -
Petr Kosarevskiy Sibir Actif 90 / 110 40% 2 02.12.2026 -
Mohau Nkota Al-Ettifaq Actif 114 / 134 40% 2 02.12.2026 -
Tyrhys Dolan Espanyol Actif 151 / 128 40% 2 27.11.2026 -
Isaac Matondo Koper Actif 89 / 101 40% 1 27.11.2026 -
Egoitz Arana Real Sociedad Actif 94 / 95 40% 1 24.11.2026 -
Hamza Alaa Al Ahly Actif 107 / 107 40% 3 23.11.2026 -
Sébastien Cibois Portimonense Actif 97 / 110 40% 1 23.11.2026 -
Martin Zlomislić Qarabag Actif 102 / 122 40% 2 21.11.2026 -
Rostislav Soldatenko Torpedo Moscow Actif 111 / 90 40% 1 20.11.2026 -
Ivan Lomaev Ufa Actif 119 / 107 40% 2 19.11.2026 -
Leandro Antunes Al-Riyadh Actif 132 / 126 40% 1 17.11.2026 -
Samuel Brolin Kalmar FF Actif 124 / 120 40% 2 11.11.2026 -
Suhail Abdulla Al Wasl Actif 103 / 107 40% 1 10.11.2026 -
Filip Samurović Radnik Surdulica Actif 88 / 90 40% 1 09.11.2026 -
Maycon Cleiton Zira Actif 106 / 103 40% 2 08.11.2026 -
João Valido Chaves Actif 117 / 107 40% 2 05.11.2026 -
Crysencio Summerville Al-Hilal Actif 137 / 148 40% 1 31.10.2026 -
Teddy Okou Al-Riyadh Actif 129 / 125 40% 1 31.10.2026 -
Davit Kereselidze Dila Actif 109 / 118 40% 1 31.10.2026 -
Houssem Aouar Al-Ittihad Actif 135 / 142 40% 1 27.10.2026 -
Leonardo Marson Gubbio Actif 95 / 118 40% 1 27.10.2026 -
Óscar Al-Diriyah Actif 139 / 133 40% 1 24.10.2026 -
Juan Sebastián Serrano HIFK Actif 110 / 91 40% 1 20.10.2026 -
Lucas Souto Defensa y Justicia Actif 137 / 122 40% 1 18.10.2026 -
Angelo Fulgini Al-Khaleej Actif 125 / 121 40% 1 17.10.2026 -
Timur Kraikov Sokol Actif 82 / 98 40% 1 12.10.2026 -
Eldar Ćivić Baltika Actif 98 / 133 40% 1 11.10.2026 -
Dimitris Dimitriou Ermis Actif 98 / 93 40% 1 11.10.2026 -
Visar Bekaj Tirana Actif 99 / 124 40% 1 08.10.2026 -
Lechi Sadulaev Akhmat Grozny Actif 117 / 127 40% 1 07.10.2026 -
Mahamadou Doumbia Al-Ittihad Actif 142 / 130 40% 1 09.09.2026 -
Johnly Yfeko Exeter City Actif 108 / 97 40% 1 09.09.2026 -
Pedro Rebocho Al-Khaleej Actif 120 / 112 40% 1 07.09.2026 -
Maro Katinić Sharjah Actif 119 / 125 40% 1 17.08.2026 -
Giorgos Giakoumakis Al Ain Actif 126 / 134 40% 1 05.08.2026 -